Aviation Digital Data Service (ADDS)

Output produced by METARs form (1304 UTC 16 July 2019)
found at http://www.aviationweather.gov/metar/data/
 
PGUM 161131Z 1612/1718 VRB05KT P6SM VCSH FEW018 SCT050 BKN140 
     FM162200 04010KT P6SM VCSH FEW020 SCT050 BKN120